createdAt,value
2022-11-08T00:04:25.027Z,100631.00
2022-11-08T00:09:48.414Z,100637.47
2022-11-08T00:14:51.943Z,100634.44
2022-11-08T00:19:55.911Z,100632.97
2022-11-08T00:24:59.098Z,100640.34
2022-11-08T00:30:02.118Z,100640.78
2022-11-08T00:35:06.330Z,100637.53
2022-11-08T00:40:10.233Z,100639.56
2022-11-08T00:45:14.068Z,100624.13
2022-11-08T00:50:16.925Z,100625.91
2022-11-08T00:55:20.048Z,100637.81
2022-11-08T01:00:23.301Z,100632.03
2022-11-08T01:05:26.151Z,100641.91
2022-11-08T01:10:29.037Z,100645.72
2022-11-08T01:15:40.789Z,100645.06
2022-11-08T01:20:46.339Z,100635.00
2022-11-08T01:25:49.963Z,100635.97
2022-11-08T01:30:52.647Z,100630.00
2022-11-08T01:35:55.524Z,100645.22
2022-11-08T01:40:58.402Z,100627.34
2022-11-08T01:46:13.123Z,100624.25
2022-11-08T01:51:21.002Z,100635.25
2022-11-08T01:56:24.132Z,100626.00
2022-11-08T02:01:27.116Z,100633.38
2022-11-08T02:06:32.228Z,100620.56
2022-11-08T02:11:36.790Z,100621.53
2022-11-08T02:16:39.773Z,100614.38
2022-11-08T02:21:58.303Z,100623.50
2022-11-08T02:27:02.034Z,100618.91
2022-11-08T02:32:06.511Z,100609.84
2022-11-08T02:37:10.925Z,100620.97
2022-11-08T02:42:19.554Z,100621.50
2022-11-08T02:47:24.156Z,100622.09
2022-11-08T02:52:27.145Z,100624.31
2022-11-08T02:57:30.143Z,100623.16
2022-11-08T03:02:33.109Z,100622.00
2022-11-08T03:07:36.164Z,100621.69
2022-11-08T03:12:40.016Z,100622.16
2022-11-08T03:17:42.904Z,100623.66
2022-11-08T03:22:46.533Z,100625.13
2022-11-08T03:27:49.373Z,100630.97
2022-11-08T03:32:53.646Z,100629.94
2022-11-08T03:37:57.643Z,100627.06
2022-11-08T03:43:00.659Z,100634.75
2022-11-08T03:48:04.097Z,100632.84
2022-11-08T03:53:07.036Z,100628.94
2022-11-08T03:58:09.936Z,100620.00
2022-11-08T04:03:12.813Z,100618.81
2022-11-08T04:08:15.900Z,100625.66
2022-11-08T04:13:37.857Z,100618.69
2022-11-08T04:18:59.125Z,100629.84
2022-11-08T04:24:02.161Z,100619.31
2022-11-08T04:29:05.028Z,100616.94
2022-11-08T04:34:08.279Z,100619.66
2022-11-08T04:39:11.268Z,100617.78
2022-11-08T04:44:15.658Z,100617.66
2022-11-08T04:49:18.768Z,100618.38
2022-11-08T04:54:21.797Z,100609.44
2022-11-08T04:59:24.867Z,100615.31
2022-11-08T05:04:27.673Z,100621.31
2022-11-08T05:09:30.534Z,100609.97
2022-11-08T05:14:33.532Z,100619.72
2022-11-08T05:19:54.768Z,100621.75
2022-11-08T05:24:57.602Z,100629.38
2022-11-08T05:30:00.627Z,100626.06
2022-11-08T05:35:03.861Z,100625.81
2022-11-08T05:40:07.966Z,100639.44
2022-11-08T05:45:10.980Z,100644.38
2022-11-08T05:50:19.260Z,100645.53
2022-11-08T05:55:22.498Z,100647.78
2022-11-08T06:00:25.451Z,100651.25
2022-11-08T06:05:28.282Z,100636.56
2022-11-08T06:10:31.170Z,100653.53
2022-11-08T06:15:35.049Z,100651.63
2022-11-08T06:20:37.789Z,100666.44
2022-11-08T06:25:43.875Z,100670.53
2022-11-08T06:30:49.519Z,100673.06
2022-11-08T06:35:52.655Z,100670.81
2022-11-08T06:40:59.320Z,100675.53
2022-11-08T06:46:02.637Z,100675.28
2022-11-08T06:51:05.853Z,100682.00
2022-11-08T06:56:10.006Z,100688.72
2022-11-08T07:01:13.795Z,100696.38
2022-11-08T07:06:16.728Z,100696.75
2022-11-08T07:11:19.569Z,100698.34
2022-11-08T07:16:22.390Z,100699.19
2022-11-08T07:21:25.289Z,100700.22
2022-11-08T07:26:28.145Z,100688.53
2022-11-08T07:31:30.974Z,100703.66
2022-11-08T07:36:33.864Z,100698.53
2022-11-08T07:41:36.655Z,100706.72
2022-11-08T07:46:39.508Z,100703.38
2022-11-08T07:51:42.463Z,100703.38
2022-11-08T07:56:45.338Z,100701.59
2022-11-08T08:01:48.278Z,100701.00
2022-11-08T08:06:51.325Z,100696.47
2022-11-08T08:11:54.185Z,100704.13
2022-11-08T08:16:57.875Z,100709.53
2022-11-08T08:22:00.794Z,100709.44
2022-11-08T08:27:03.703Z,100711.00
2022-11-08T08:32:06.617Z,100705.75
2022-11-08T08:37:10.242Z,100710.81
2022-11-08T08:42:13.090Z,100719.50
2022-11-08T08:47:16.085Z,100719.66
2022-11-08T08:52:19.021Z,100725.25
2022-11-08T08:57:21.971Z,100723.09
2022-11-08T09:02:24.948Z,100728.16
2022-11-08T09:07:27.851Z,100728.09
2022-11-08T09:12:31.007Z,100737.22
2022-11-08T09:17:34.082Z,100750.03
2022-11-08T09:22:38.540Z,100745.97
2022-11-08T09:27:41.666Z,100748.91
2022-11-08T09:33:00.471Z,100733.88
2022-11-08T09:38:04.653Z,100729.53
2022-11-08T09:43:40.216Z,100734.31
2022-11-08T09:48:45.419Z,100738.94
2022-11-08T09:53:58.612Z,100736.69
2022-11-08T09:59:20.427Z,100731.72
2022-11-08T10:04:26.187Z,100719.91
2022-11-08T10:09:59.858Z,100723.84
2022-11-08T10:15:30.990Z,100720.25
2022-11-08T10:21:10.535Z,100714.47
2022-11-08T10:26:27.093Z,100709.22
2022-11-08T10:31:35.207Z,100712.50
2022-11-08T10:36:47.638Z,100704.25
2022-11-08T10:42:17.648Z,100699.97
2022-11-08T10:47:29.690Z,100701.94
2022-11-08T10:52:46.681Z,100690.41
2022-11-08T10:57:49.731Z,100687.50
2022-11-08T11:03:15.270Z,100690.28
2022-11-08T11:08:19.176Z,100683.63
2022-11-08T11:18:49.294Z,100676.53
2022-11-08T11:23:58.582Z,100671.97
2022-11-08T11:29:04.251Z,100664.72
2022-11-08T11:34:19.385Z,100666.69
2022-11-08T11:39:46.262Z,100655.31
2022-11-08T11:45:15.643Z,100656.72
2022-11-08T11:50:28.593Z,100651.84
2022-11-08T11:55:43.481Z,100650.88
2022-11-08T12:00:59.481Z,100635.28
2022-11-08T12:06:12.435Z,100635.97
2022-11-08T12:11:49.504Z,100635.84
2022-11-08T12:17:32.811Z,100615.66
2022-11-08T12:22:59.177Z,100611.72
2022-11-08T12:28:08.925Z,100609.06
2022-11-08T12:33:42.930Z,100605.97
2022-11-08T12:38:59.669Z,100608.41
2022-11-08T12:44:14.367Z,100601.00
2022-11-08T12:49:44.352Z,100596.66
2022-11-08T12:55:09.928Z,100593.91
2022-11-08T13:00:20.213Z,100593.38
2022-11-08T13:05:31.804Z,100587.38
2022-11-08T13:10:55.592Z,100579.66
2022-11-08T13:16:14.673Z,100574.34
2022-11-08T13:21:34.395Z,100579.69
2022-11-08T13:26:42.404Z,100570.09
2022-11-08T13:31:51.234Z,100574.13
2022-11-08T13:37:43.094Z,100573.63
2022-11-08T13:43:07.463Z,100580.66
2022-11-08T13:48:36.660Z,100578.69
2022-11-08T13:53:58.385Z,100568.69
2022-11-08T13:59:01.167Z,100556.69
2022-11-08T14:04:30.884Z,100559.97
2022-11-08T14:10:01.520Z,100565.56
2022-11-08T14:15:22.261Z,100557.81
2022-11-08T14:20:46.394Z,100556.38
2022-11-08T14:26:23.649Z,100548.94
2022-11-08T14:31:32.949Z,100556.09
2022-11-08T14:36:35.995Z,100557.84
2022-11-08T14:41:39.860Z,100557.88
2022-11-08T14:46:42.779Z,100552.19
2022-11-08T14:51:46.811Z,100556.53
2022-11-08T14:56:50.446Z,100555.81
2022-11-08T15:01:53.907Z,100562.78
2022-11-08T15:06:59.048Z,100560.44
2022-11-08T15:12:23.889Z,100568.00
2022-11-08T15:17:34.605Z,100568.56
2022-11-08T15:22:37.880Z,100571.97
2022-11-08T15:27:56.602Z,100577.56
2022-11-08T15:32:59.498Z,100565.31
2022-11-08T15:38:06.788Z,100582.75
2022-11-08T15:43:44.649Z,100573.41
2022-11-08T15:48:59.019Z,100571.34
2022-11-08T15:54:01.894Z,100586.25
2022-11-08T15:59:05.011Z,100586.38
2022-11-08T16:04:13.285Z,100584.72
2022-11-08T16:09:16.234Z,100591.84
2022-11-08T16:14:22.917Z,100586.66
2022-11-08T16:19:25.981Z,100580.69
2022-11-08T16:24:28.912Z,100585.56
2022-11-08T16:29:34.981Z,100584.88
2022-11-08T16:34:37.949Z,100589.34
2022-11-08T16:39:40.828Z,100590.84
2022-11-08T16:44:44.474Z,100601.16
2022-11-08T16:49:51.291Z,100595.72
2022-11-08T16:54:54.711Z,100599.22
2022-11-08T16:59:57.611Z,100597.69
2022-11-08T17:05:00.519Z,100611.03
2022-11-08T17:10:03.607Z,100602.41
2022-11-08T17:15:13.274Z,100598.25
2022-11-08T17:20:19.984Z,100600.91
2022-11-08T17:25:24.563Z,100602.84
2022-11-08T17:30:27.439Z,100612.72
2022-11-08T17:35:30.386Z,100612.06
2022-11-08T17:40:33.579Z,100611.22
2022-11-08T17:45:36.628Z,100614.53
2022-11-08T17:50:39.746Z,100609.97
2022-11-08T17:55:42.727Z,100607.19
2022-11-08T18:00:45.676Z,100604.94
2022-11-08T18:06:00.724Z,100618.31
2022-11-08T18:11:04.630Z,100607.00
2022-11-08T18:16:15.387Z,100609.81
2022-11-08T18:21:19.726Z,100602.84
2022-11-08T18:26:22.612Z,100597.00
2022-11-08T18:31:26.407Z,100599.63
2022-11-08T18:36:30.988Z,100595.75
2022-11-08T18:41:34.140Z,100590.16
2022-11-08T18:46:41.783Z,100598.81
2022-11-08T18:51:51.862Z,100590.75
2022-11-08T18:56:54.786Z,100593.38
2022-11-08T19:01:57.693Z,100592.41
2022-11-08T19:07:00.522Z,100586.97
2022-11-08T19:12:06.103Z,100594.06
2022-11-08T19:17:09.590Z,100603.41
2022-11-08T19:22:12.429Z,100597.84
2022-11-08T19:27:15.368Z,100598.69
2022-11-08T19:32:18.170Z,100598.69
2022-11-08T19:37:20.930Z,100598.69
2022-11-08T19:42:24.040Z,100603.00
2022-11-08T19:47:27.183Z,100606.34
2022-11-08T19:52:30.017Z,100604.38
2022-11-08T19:57:35.033Z,100607.88
2022-11-08T20:02:38.990Z,100615.66
2022-11-08T20:07:45.726Z,100616.34
2022-11-08T20:12:48.525Z,100617.03
2022-11-08T20:17:51.384Z,100619.69
2022-11-08T20:22:54.235Z,100624.03
2022-11-08T20:27:56.971Z,100613.56
2022-11-08T20:33:00.322Z,100617.75
2022-11-08T20:38:03.292Z,100616.78
2022-11-08T20:43:06.207Z,100618.28
2022-11-08T20:48:09.157Z,100616.63
2022-11-08T20:53:11.989Z,100613.28
2022-11-08T20:58:14.727Z,100618.44
2022-11-08T21:03:19.055Z,100616.78
2022-11-08T21:13:46.876Z,100626.38
2022-11-08T21:18:49.679Z,100631.66
2022-11-08T21:23:54.209Z,100625.53
2022-11-08T21:28:56.959Z,100624.84
2022-11-08T21:34:00.493Z,100620.66
2022-11-08T21:39:03.406Z,100619.84
2022-11-08T21:44:06.250Z,100623.31
2022-11-08T21:49:13.445Z,100615.38
2022-11-08T21:54:16.310Z,100615.38
2022-11-08T21:59:19.161Z,100616.34
2022-11-08T22:04:22.123Z,100617.34
2022-11-08T22:09:24.961Z,100620.81
2022-11-08T22:14:27.789Z,100617.19
2022-11-08T22:19:30.948Z,100618.03
2022-11-08T22:24:33.998Z,100612.31
2022-11-08T22:29:36.846Z,100615.81
2022-11-08T22:34:40.065Z,100613.28
2022-11-08T22:39:42.903Z,100611.63
2022-11-08T22:44:45.869Z,100614.25
2022-11-08T22:49:48.830Z,100608.00
2022-11-08T22:54:51.766Z,100606.06
2022-11-08T22:59:54.634Z,100613.03
2022-11-08T23:04:57.454Z,100617.03
2022-11-08T23:10:00.362Z,100609.09
2022-11-08T23:15:22.300Z,100612.63
2022-11-08T23:20:43.709Z,100603.69
2022-11-08T23:25:46.600Z,100600.06
2022-11-08T23:31:07.800Z,100602.56
2022-11-08T23:36:15.171Z,100601.88
2022-11-08T23:41:36.253Z,100598.41
2022-11-08T23:46:39.411Z,100600.06
2022-11-08T23:51:42.211Z,100602.84
2022-11-08T23:56:45.237Z,100594.91
